Time;durP1;ratioP1;P1;durP2;ratioP2;P2;SDS_P1;SDS_P2;PMS_P1;PMS_P2;Temp;Humidity;BMP_temperature;BMP_pressure;BME280_temperature;BME280_humidity;BME280_pressure;Samples;Min_cycle;Max_cycle;Signal;HPM_P1;HPM_P2
2021/08/30 00:01:05;;;;;;;11.60;8.77;;;15.00;99.90;;;;;;4993861;28;20216;-72
2021/08/30 00:03:32;;;;;;;14.57;9.25;;;15.00;99.90;;;;;;4993706;28;20212;-71
2021/08/30 00:06:00;;;;;;;9.32;8.35;;;15.00;99.90;;;;;;4994829;28;20274;-71
2021/08/30 00:08:28;;;;;;;10.35;8.82;;;15.00;99.90;;;;;;4996057;28;20277;-71
2021/08/30 00:10:56;;;;;;;9.00;8.10;;;15.00;99.90;;;;;;4997928;28;20227;-71
2021/08/30 00:13:23;;;;;;;10.50;8.50;;;15.00;99.90;;;;;;4995370;28;20200;-71
2021/08/30 00:15:51;;;;;;;9.98;8.98;;;15.00;99.90;;;;;;4993512;28;20235;-71
2021/08/30 00:18:18;;;;;;;9.75;8.75;;;15.00;99.90;;;;;;4994194;28;20259;-72
2021/08/30 00:20:45;;;;;;;9.90;8.93;;;15.10;99.90;;;;;;4993323;28;20236;-72
2021/08/30 00:23:12;;;;;;;9.75;8.27;;;15.10;99.90;;;;;;4992923;28;20323;-71
2021/08/30 00:25:41;;;;;;;8.70;7.80;;;15.10;99.90;;;;;;4993084;28;20283;-72
2021/08/30 00:28:09;;;;;;;9.32;7.95;;;15.00;99.90;;;;;;4993300;28;20296;-71
2021/08/30 00:30:38;;;;;;;9.05;7.70;;;15.00;99.90;;;;;;4994017;28;20295;-71
2021/08/30 00:33:08;;;;;;;9.50;8.50;;;15.00;99.90;;;;;;4993974;28;20244;-71
2021/08/30 00:35:35;;;;;;;8.55;7.60;;;15.00;99.90;;;;;;4996497;28;20205;-73
2021/08/30 00:38:02;;;;;;;9.18;7.65;;;15.10;99.90;;;;;;4996210;28;20244;-73
2021/08/30 00:40:29;;;;;;;9.18;8.27;;;15.00;99.90;;;;;;4997055;28;20236;-72
2021/08/30 00:43:01;;;;;;;10.32;9.27;;;15.00;99.90;;;;;;4995762;28;20695;-71
2021/08/30 00:45:28;;;;;;;9.70;8.68;;;15.00;99.90;;;;;;4997279;28;20208;-70
2021/08/30 00:47:58;;;;;;;8.90;8.10;;;15.00;99.90;;;;;;4996888;28;20216;-71
2021/08/30 00:50:25;;;;;;;10.80;8.70;;;15.00;99.90;;;;;;4996889;28;20715;-71
2021/08/30 00:52:52;;;;;;;10.55;8.30;;;15.00;99.90;;;;;;4997100;28;20613;-70
2021/08/30 00:55:20;;;;;;;10.30;8.40;;;15.00;99.90;;;;;;4996292;28;20212;-71
2021/08/30 00:57:48;;;;;;;9.38;8.57;;;15.10;99.90;;;;;;4997049;28;20215;-71
2021/08/30 01:00:17;;;;;;;11.60;10.35;;;15.10;99.90;;;;;;4996271;28;20237;-71
2021/08/30 01:02:45;;;;;;;13.15;9.35;;;15.10;99.90;;;;;;4995585;28;20216;-71
2021/08/30 01:05:14;;;;;;;11.20;8.65;;;15.10;99.90;;;;;;4996376;28;20303;-72
2021/08/30 01:07:50;;;;;;;10.60;9.50;;;15.00;99.90;;;;;;4995820;28;20217;-71
2021/08/30 01:10:27;;;;;;;9.70;8.80;;;15.00;99.90;;;;;;4996334;28;20251;-71
2021/08/30 01:13:00;;;;;;;9.68;8.70;;;15.00;99.90;;;;;;4995871;28;20218;-71
2021/08/30 01:15:39;;;;;;;10.32;9.23;;;15.00;99.90;;;;;;4996261;28;20299;-70
2021/08/30 01:18:07;;;;;;;10.27;8.35;;;15.00;99.90;;;;;;4996308;28;20688;-70
2021/08/30 01:20:49;;;;;;;11.70;8.80;;;15.00;99.90;;;;;;4996125;28;20294;-71
2021/08/30 01:23:22;;;;;;;9.57;8.35;;;14.90;99.90;;;;;;4996741;28;20282;-72
2021/08/30 01:25:52;;;;;;;10.27;8.18;;;14.90;99.90;;;;;;4996184;28;20587;-73
2021/08/30 01:28:21;;;;;;;10.70;9.18;;;14.90;99.90;;;;;;5006582;28;20304;-72
2021/08/30 01:30:53;;;;;;;14.77;8.85;;;14.90;99.90;;;;;;5007457;28;20231;-72
2021/08/30 01:33:26;;;;;;;9.15;8.15;;;14.90;99.90;;;;;;5005550;28;20247;-71
2021/08/30 01:35:53;;;;;;;9.23;8.38;;;14.90;99.90;;;;;;5003584;28;20458;-70
2021/08/30 01:38:21;;;;;;;10.52;8.63;;;14.90;99.90;;;;;;5008191;28;20213;-71
2021/08/30 01:40:49;;;;;;;9.65;8.13;;;14.90;99.90;;;;;;5008567;28;20243;-71
2021/08/30 01:43:17;;;;;;;9.85;8.95;;;15.00;99.90;;;;;;5006780;28;20672;-72
2021/08/30 01:45:44;;;;;;;9.55;8.55;;;15.00;99.90;;;;;;5000529;28;20239;-72
2021/08/30 01:48:12;;;;;;;8.30;7.40;;;15.00;99.90;;;;;;4999439;28;20212;-71
2021/08/30 01:50:41;;;;;;;9.38;8.38;;;15.00;99.90;;;;;;4997702;28;20719;-71
2021/08/30 01:53:11;;;;;;;9.00;8.05;;;15.00;99.90;;;;;;4998622;28;20214;-72
2021/08/30 01:55:43;;;;;;;9.63;8.73;;;15.00;99.90;;;;;;4999055;28;20208;-71
2021/08/30 02:00:56;;;;;;;9.70;8.70;;;15.00;99.90;;;;;;4999209;28;20227;-71
2021/08/30 02:03:24;;;;;;;11.60;8.50;;;15.00;99.90;;;;;;5011978;28;20223;-72
2021/08/30 02:06:03;;;;;;;13.02;8.70;;;15.00;99.90;;;;;;5011518;28;20219;-71
2021/08/30 02:08:33;;;;;;;13.40;9.27;;;15.00;99.90;;;;;;5005446;28;20220;-71
2021/08/30 02:11:02;;;;;;;11.85;8.70;;;15.00;99.90;;;;;;4997710;28;20241;-71
2021/08/30 02:13:29;;;;;;;10.60;8.85;;;15.00;99.90;;;;;;4997558;28;20216;-72
2021/08/30 02:15:58;;;;;;;10.57;9.30;;;15.00;99.90;;;;;;4998461;28;20212;-71
2021/08/30 02:18:33;;;;;;;11.27;9.18;;;14.90;99.90;;;;;;4996490;28;20303;-71
2021/08/30 02:21:10;;;;;;;12.32;8.70;;;14.90;99.90;;;;;;4995893;28;20310;-71
2021/08/30 02:23:42;;;;;;;10.18;9.10;;;14.90;99.90;;;;;;4996436;28;20575;-72
2021/08/30 02:26:14;;;;;;;12.27;9.02;;;14.90;99.90;;;;;;4995331;28;20231;-73
2021/08/30 02:28:49;;;;;;;12.57;8.95;;;14.90;99.90;;;;;;4994617;28;20283;-72
2021/08/30 02:31:18;;;;;;;10.20;9.15;;;14.90;99.90;;;;;;4994996;28;20275;-72
2021/08/30 02:33:45;;;;;;;10.07;8.90;;;14.80;99.90;;;;;;4994945;28;20212;-74
2021/08/30 02:36:16;;;;;;;10.68;8.90;;;14.90;99.90;;;;;;4994606;28;20294;-73
2021/08/30 02:38:51;;;;;;;10.15;8.63;;;14.80;99.90;;;;;;4995547;28;20303;-73
2021/08/30 02:41:20;;;;;;;10.30;8.82;;;14.80;99.90;;;;;;4994574;28;20207;-73
2021/08/30 02:43:48;;;;;;;10.32;8.85;;;14.90;99.90;;;;;;4994825;28;20684;-73
2021/08/30 02:46:18;;;;;;;10.95;8.05;;;14.80;99.90;;;;;;4993678;28;20211;-73
2021/08/30 02:48:46;;;;;;;11.18;8.65;;;14.90;99.90;;;;;;4994390;28;20211;-73
2021/08/30 02:51:16;;;;;;;9.75;8.48;;;14.80;99.90;;;;;;4994161;28;20239;-73
2021/08/30 02:53:45;;;;;;;9.32;8.35;;;14.80;99.90;;;;;;4993833;28;20215;-73
2021/08/30 02:56:13;;;;;;;10.90;8.20;;;14.80;99.90;;;;;;4993732;28;20213;-72
2021/08/30 02:58:44;;;;;;;10.38;8.40;;;14.80;99.90;;;;;;4993329;28;20246;-72
2021/08/30 03:01:13;;;;;;;10.50;8.50;;;14.80;99.90;;;;;;4993859;28;20234;-72
2021/08/30 03:03:41;;;;;;;9.73;7.60;;;14.80;99.90;;;;;;4993831;28;20212;-71
2021/08/30 03:06:09;;;;;;;11.85;8.30;;;14.80;99.90;;;;;;4993855;28;20216;-72
2021/08/30 03:08:43;;;;;;;9.80;8.63;;;14.90;99.90;;;;;;4993722;28;20278;-73
2021/08/30 03:11:13;;;;;;;9.05;7.97;;;14.90;99.90;;;;;;4993540;28;20698;-73
2021/08/30 03:13:44;;;;;;;9.60;7.80;;;14.90;99.90;;;;;;4993578;28;20212;-72
2021/08/30 03:16:12;;;;;;;8.80;7.90;;;14.80;99.90;;;;;;4993615;28;20649;-72
2021/08/30 03:18:41;;;;;;;9.68;7.97;;;14.90;99.90;;;;;;4994178;28;20219;-72
2021/08/30 03:21:13;;;;;;;9.05;7.45;;;14.90;99.90;;;;;;4992982;28;20228;-71
2021/08/30 03:23:42;;;;;;;8.15;7.35;;;14.80;99.90;;;;;;4994123;28;20622;-71
2021/08/30 03:26:14;;;;;;;8.10;7.30;;;14.80;99.90;;;;;;4993427;28;20297;-72
2021/08/30 03:28:42;;;;;;;8.57;7.25;;;14.90;99.90;;;;;;4993498;28;20214;-72
2021/08/30 03:31:09;;;;;;;12.40;7.30;;;14.90;99.90;;;;;;4993189;28;20242;-72
2021/08/30 03:33:37;;;;;;;8.90;7.63;;;14.90;99.90;;;;;;4992767;28;20211;-72
2021/08/30 03:36:06;;;;;;;10.38;6.78;;;14.80;99.90;;;;;;4993531;28;20208;-71
2021/08/30 03:38:33;;;;;;;10.40;7.40;;;14.90;99.90;;;;;;4993538;28;20395;-72
2021/08/30 03:41:04;;;;;;;9.38;7.47;;;14.80;99.90;;;;;;4993158;28;20250;-72
2021/08/30 03:43:32;;;;;;;8.02;7.13;;;14.90;99.90;;;;;;4995320;28;20212;-72
2021/08/30 03:46:01;;;;;;;8.40;7.50;;;14.90;99.90;;;;;;4994607;28;20219;-71
2021/08/30 03:48:31;;;;;;;9.07;7.70;;;14.90;99.90;;;;;;4993816;28;20216;-73
2021/08/30 03:50:58;;;;;;;9.55;7.78;;;14.90;99.90;;;;;;4993860;28;20232;-72
2021/08/30 03:53:26;;;;;;;9.40;7.57;;;14.90;99.90;;;;;;4993197;28;20302;-72
2021/08/30 03:56:04;;;;;;;10.80;7.70;;;14.80;99.90;;;;;;4992846;28;20209;-72
2021/08/30 03:58:37;;;;;;;12.40;9.23;;;14.90;99.90;;;;;;4996858;28;20289;-72
2021/08/30 04:01:10;;;;;;;10.88;8.77;;;14.90;99.90;;;;;;4994693;28;20239;-73
2021/08/30 04:03:42;;;;;;;11.70;8.50;;;14.90;99.90;;;;;;4995172;28;20215;-73
2021/08/30 04:06:14;;;;;;;10.25;8.98;;;14.80;99.90;;;;;;4993961;28;20209;-72
2021/08/30 04:08:41;;;;;;;10.45;8.27;;;14.80;99.90;;;;;;4996554;28;20274;-73
2021/08/30 04:11:10;;;;;;;9.52;7.82;;;14.90;99.90;;;;;;4997396;28;20232;-73
2021/08/30 04:13:40;;;;;;;10.50;8.90;;;14.80;99.90;;;;;;4997887;28;20626;-72
2021/08/30 04:16:07;;;;;;;10.40;8.77;;;14.80;99.90;;;;;;4998352;28;20223;-72
2021/08/30 04:18:34;;;;;;;9.85;8.85;;;14.80;99.90;;;;;;5005433;28;20232;-73
2021/08/30 04:21:01;;;;;;;14.32;8.55;;;14.80;99.90;;;;;;5000368;28;20697;-73
2021/08/30 04:23:30;;;;;;;11.80;9.10;;;14.90;99.90;;;;;;5001073;28;20426;-73
2021/08/30 04:25:57;;;;;;;10.20;8.93;;;14.90;99.90;;;;;;4999905;28;20220;-73
2021/08/30 04:28:24;;;;;;;10.73;8.70;;;14.80;99.90;;;;;;5000228;28;20212;-73
2021/08/30 04:30:54;;;;;;;12.07;8.70;;;14.80;99.90;;;;;;5000269;28;20268;-73
2021/08/30 04:35:59;;;;;;;9.85;8.85;;;14.80;99.90;;;;;;5055008;28;20238;-73
2021/08/30 04:38:26;;;;;;;12.35;9.48;;;14.80;99.90;;;;;;5057089;28;20248;-74
2021/08/30 04:40:53;;;;;;;9.43;8.52;;;14.80;99.90;;;;;;5055792;28;20804;-73
2021/08/30 04:43:20;;;;;;;10.15;8.88;;;14.80;99.90;;;;;;5056942;28;20220;-73
2021/08/30 04:45:47;;;;;;;12.70;9.90;;;14.80;99.90;;;;;;5056523;28;20225;-74
2021/08/30 04:48:15;;;;;;;10.30;8.95;;;14.80;99.90;;;;;;5056439;28;20214;-73
2021/08/30 04:50:42;;;;;;;10.63;9.55;;;14.80;99.90;;;;;;5056135;28;20297;-73
2021/08/30 04:53:09;;;;;;;10.23;9.05;;;14.80;99.90;;;;;;5056320;28;20206;-74
2021/08/30 04:55:37;;;;;;;10.93;9.18;;;14.80;99.90;;;;;;5056139;28;20254;-74
2021/08/30 04:58:07;;;;;;;14.52;9.30;;;14.80;99.90;;;;;;5055788;28;20301;-73
2021/08/30 05:00:34;;;;;;;13.15;9.25;;;14.80;99.90;;;;;;5055337;28;20226;-73
2021/08/30 05:03:01;;;;;;;13.25;9.65;;;14.80;99.90;;;;;;5056016;28;20377;-72
2021/08/30 05:05:30;;;;;;;10.85;8.90;;;14.80;99.90;;;;;;5055807;28;20316;-73
2021/08/30 05:07:57;;;;;;;13.82;10.50;;;14.80;99.90;;;;;;5056389;28;20209;-72
2021/08/30 05:10:23;;;;;;;10.75;9.63;;;14.80;99.90;;;;;;5055203;28;20692;-73
2021/08/30 05:12:50;;;;;;;13.88;10.13;;;14.80;99.90;;;;;;5056618;28;20233;-73
2021/08/30 05:15:17;;;;;;;12.85;9.68;;;14.80;99.90;;;;;;5057285;28;20226;-73
2021/08/30 05:17:44;;;;;;;11.88;10.63;;;14.80;99.90;;;;;;5058529;28;20255;-73
2021/08/30 05:20:12;;;;;;;9.43;8.43;;;14.80;99.90;;;;;;5056862;28;20701;-73
2021/08/30 05:22:40;;;;;;;13.88;10.35;;;14.90;99.90;;;;;;5058861;28;20217;-73
2021/08/30 05:25:08;;;;;;;11.82;9.32;;;14.90;99.90;;;;;;5064099;28;20234;-73
2021/08/30 05:27:35;;;;;;;11.23;9.90;;;14.90;99.90;;;;;;5069326;28;20198;-72
2021/08/30 05:30:02;;;;;;;10.95;9.48;;;14.90;99.90;;;;;;5077021;28;20195;-73
2021/08/30 05:32:32;;;;;;;10.80;9.40;;;15.00;99.90;;;;;;5077288;28;20201;-73
2021/08/30 05:34:59;;;;;;;10.90;9.75;;;15.00;99.90;;;;;;5075428;28;20262;-73
2021/08/30 05:37:26;;;;;;;10.73;9.25;;;15.00;99.90;;;;;;5074579;28;20202;-72
2021/08/30 05:39:54;;;;;;;12.43;10.02;;;15.00;99.90;;;;;;5066841;28;20697;-73
2021/08/30 05:42:21;;;;;;;11.95;9.55;;;15.10;99.90;;;;;;5061459;28;20210;-72
2021/08/30 05:44:48;;;;;;;10.48;9.23;;;15.20;99.90;;;;;;5060299;28;20227;-72
2021/08/30 05:47:15;;;;;;;11.10;8.70;;;15.20;99.90;;;;;;5059417;28;20305;-72
2021/08/30 05:49:42;;;;;;;11.52;9.23;;;15.30;99.90;;;;;;5058096;28;20253;-73
2021/08/30 05:52:12;;;;;;;12.32;10.35;;;15.40;99.90;;;;;;5059033;28;20207;-72
2021/08/30 05:54:39;;;;;;;11.65;10.05;;;15.50;99.90;;;;;;5055923;28;20701;-72
2021/08/30 05:57:07;;;;;;;9.98;8.48;;;15.40;99.90;;;;;;5056970;28;20241;-72
2021/08/30 05:59:36;;;;;;;12.75;9.40;;;15.50;99.90;;;;;;5054548;28;20612;-73
2021/08/30 06:02:03;;;;;;;10.32;9.32;;;15.50;99.90;;;;;;5055957;28;20210;-74
2021/08/30 06:04:30;;;;;;;13.38;9.65;;;15.50;99.90;;;;;;5055237;28;20230;-73
2021/08/30 06:06:57;;;;;;;9.43;8.52;;;15.50;99.90;;;;;;5054849;28;20233;-74
2021/08/30 06:09:24;;;;;;;9.93;8.93;;;15.60;99.90;;;;;;5056572;28;20214;-74
2021/08/30 06:11:51;;;;;;;9.45;8.13;;;15.50;99.90;;;;;;5056893;28;20238;-74
2021/08/30 06:14:19;;;;;;;10.15;8.70;;;15.50;99.90;;;;;;5055007;28;20733;-74
2021/08/30 06:16:46;;;;;;;11.20;8.60;;;15.50;99.90;;;;;;5059406;28;20241;-74
2021/08/30 06:19:13;;;;;;;8.68;7.78;;;15.50;99.90;;;;;;5060267;28;20249;-74
2021/08/30 06:21:40;;;;;;;9.10;8.20;;;15.50;99.90;;;;;;5056288;28;20272;-74
2021/08/30 06:24:07;;;;;;;9.63;8.35;;;15.40;99.90;;;;;;5056924;28;20312;-74
2021/08/30 06:26:37;;;;;;;8.38;7.57;;;15.50;99.90;;;;;;5054633;28;20241;-74
2021/08/30 06:29:04;;;;;;;9.25;8.25;;;15.60;99.90;;;;;;5055125;28;20262;-74
2021/08/30 06:31:33;;;;;;;8.85;7.97;;;15.50;99.90;;;;;;5059000;28;20294;-74
2021/08/30 06:34:00;;;;;;;11.50;9.00;;;15.50;99.90;;;;;;5052007;28;20663;-74
2021/08/30 06:36:27;;;;;;;10.38;7.40;;;15.60;99.90;;;;;;5045142;28;20235;-72
2021/08/30 06:38:54;;;;;;;12.05;8.40;;;15.60;99.90;;;;;;5045272;28;20202;-73
2021/08/30 06:41:23;;;;;;;9.35;8.35;;;15.60;99.90;;;;;;5053346;28;20729;-73
2021/08/30 06:43:50;;;;;;;8.45;7.60;;;15.60;99.90;;;;;;5053714;28;20241;-74
2021/08/30 06:46:16;;;;;;;10.35;7.85;;;15.60;99.90;;;;;;5054159;28;20325;-73
2021/08/30 06:48:45;;;;;;;9.32;8.35;;;15.60;99.90;;;;;;5055166;28;20249;-73
2021/08/30 06:51:12;;;;;;;10.43;7.60;;;15.60;99.90;;;;;;5054558;28;20198;-74
2021/08/30 06:53:39;;;;;;;10.93;9.00;;;15.60;99.90;;;;;;5054692;28;20666;-74
2021/08/30 06:56:06;;;;;;;11.10;8.15;;;15.60;99.90;;;;;;5054584;28;20206;-74
2021/08/30 06:58:33;;;;;;;10.40;8.55;;;15.60;99.90;;;;;;5053113;28;20206;-75
2021/08/30 07:01:00;;;;;;;9.32;7.85;;;15.60;99.90;;;;;;5052337;28;20250;-76
2021/08/30 07:03:27;;;;;;;9.85;8.00;;;15.60;99.90;;;;;;5051986;28;20257;-74
2021/08/30 07:05:55;;;;;;;8.88;7.88;;;15.70;99.90;;;;;;5051385;28;20310;-76
2021/08/30 07:08:22;;;;;;;10.60;7.72;;;15.70;99.90;;;;;;5052438;28;20216;-75
2021/08/30 07:10:49;;;;;;;10.18;8.88;;;15.60;99.90;;;;;;5051848;28;20597;-75
2021/08/30 07:13:16;;;;;;;10.02;9.00;;;15.60;99.90;;;;;;5051561;28;20210;-75
2021/08/30 07:15:42;;;;;;;13.32;8.30;;;15.70;99.90;;;;;;5053692;28;20317;-74
2021/08/30 07:18:09;;;;;;;10.10;8.68;;;15.70;99.90;;;;;;5057114;28;20213;-75
2021/08/30 07:20:36;;;;;;;8.98;8.07;;;15.80;99.90;;;;;;5053391;28;20325;-74
2021/08/30 07:23:05;;;;;;;11.18;8.65;;;15.90;99.90;;;;;;5051373;28;20301;-75
2021/08/30 07:25:32;;;;;;;8.98;7.97;;;16.00;99.90;;;;;;5041643;28;20227;-76
2021/08/30 07:27:59;;;;;;;10.00;8.53;;;16.20;99.90;;;;;;5035150;28;20291;-76
2021/08/30 07:30:26;;;;;;;8.77;7.00;;;16.30;99.90;;;;;;5033898;28;20481;-76
2021/08/30 07:32:53;;;;;;;8.40;7.00;;;16.50;99.90;;;;;;5035712;28;20678;-76
2021/08/30 07:35:21;;;;;;;7.80;7.00;;;16.50;99.90;;;;;;5035346;28;20499;-77
2021/08/30 07:37:48;;;;;;;10.60;6.67;;;16.50;99.90;;;;;;5036047;28;20555;-76
2021/08/30 07:40:17;;;;;;;8.77;7.80;;;16.60;99.90;;;;;;5035354;28;20436;-76
2021/08/30 07:42:44;;;;;;;10.07;8.40;;;16.60;99.90;;;;;;5035746;28;20472;-76
2021/08/30 07:45:11;;;;;;;8.47;7.63;;;16.60;99.90;;;;;;5038987;28;20464;-76
2021/08/30 07:47:40;;;;;;;10.10;7.47;;;16.60;99.90;;;;;;5038024;28;20478;-76
2021/08/30 07:50:07;;;;;;;16.67;7.93;;;16.60;99.90;;;;;;5037697;28;20485;-76
2021/08/30 07:52:34;;;;;;;8.30;7.50;;;16.60;99.90;;;;;;5037966;28;20489;-76
2021/08/30 07:55:01;;;;;;;14.03;7.50;;;16.70;99.90;;;;;;5053223;28;20510;-76
2021/08/30 07:57:30;;;;;;;9.90;6.47;;;16.70;99.90;;;;;;5046656;28;20469;-76
2021/08/30 07:59:57;;;;;;;7.93;7.17;;;16.80;99.90;;;;;;5058054;28;20455;-76
2021/08/30 08:02:23;;;;;;;9.23;7.27;;;16.80;99.90;;;;;;5055966;28;20521;-75
2021/08/30 08:04:50;;;;;;;9.27;8.20;;;16.70;99.90;;;;;;5058941;28;20479;-76
2021/08/30 08:07:17;;;;;;;12.33;7.33;;;16.80;99.90;;;;;;5058636;28;20483;-76
2021/08/30 08:09:44;;;;;;;12.87;9.07;;;16.80;99.90;;;;;;5056681;28;20544;-76
2021/08/30 08:12:11;;;;;;;10.60;8.97;;;16.90;99.90;;;;;;5062871;28;20541;-76
2021/08/30 08:14:39;;;;;;;8.97;7.73;;;16.90;99.90;;;;;;5065594;28;20467;-76
2021/08/30 08:17:07;;;;;;;8.93;8.13;;;16.90;99.90;;;;;;5060252;28;20880;-76
2021/08/30 08:19:34;;;;;;;11.03;8.03;;;16.90;99.90;;;;;;5059407;28;20489;-76
2021/08/30 08:22:02;;;;;;;8.40;7.60;;;16.90;99.90;;;;;;5059118;28;20840;-76
2021/08/30 08:24:29;;;;;;;8.03;7.23;;;16.90;99.90;;;;;;5060067;28;20477;-76
2021/08/30 08:26:57;;;;;;;11.07;8.27;;;17.00;99.90;;;;;;5058256;28;20482;-76
2021/08/30 08:29:24;;;;;;;9.67;7.70;;;17.10;99.90;;;;;;5057746;28;20498;-76
2021/08/30 08:31:53;;;;;;;9.40;7.50;;;17.10;99.90;;;;;;5069005;28;20454;-77
2021/08/30 08:34:19;;;;;;;9.60;8.10;;;17.10;99.90;;;;;;5072908;28;20488;-76
2021/08/30 08:36:47;;;;;;;9.73;7.60;;;17.20;99.90;;;;;;5070568;28;20451;-75
2021/08/30 08:39:14;;;;;;;8.87;7.13;;;17.30;99.90;;;;;;5073871;28;20446;-75
2021/08/30 08:41:41;;;;;;;7.53;6.77;;;17.40;99.90;;;;;;5068187;28;20495;-76
2021/08/30 08:44:08;;;;;;;8.53;7.40;;;17.60;99.90;;;;;;5066091;28;20467;-76
2021/08/30 08:46:38;;;;;;;8.20;6.80;;;17.70;99.90;;;;;;5064178;28;20462;-76
2021/08/30 08:49:07;;;;;;;8.90;7.20;;;17.70;99.90;;;;;;5065828;28;20429;-76
2021/08/30 08:51:38;;;;;;;7.60;6.80;;;17.80;99.90;;;;;;5063947;28;20488;-77
2021/08/30 08:54:20;;;;;;;8.50;7.23;;;18.00;99.50;;;;;;5069351;28;20512;-76
2021/08/30 08:56:47;;;;;;;8.90;7.47;;;18.00;97.00;;;;;;5061774;28;20482;-76
2021/08/30 08:59:14;;;;;;;9.77;7.80;;;18.20;96.50;;;;;;5057197;28;20430;-76
2021/08/30 09:01:41;;;;;;;8.23;7.40;;;18.50;95.50;;;;;;5057355;28;20999;-76
2021/08/30 09:04:10;;;;;;;10.40;7.50;;;18.80;94.20;;;;;;5063001;28;20459;-76
2021/08/30 09:06:41;;;;;;;8.23;7.40;;;19.10;93.20;;;;;;5064428;28;20438;-76
2021/08/30 09:09:10;;;;;;;10.73;8.13;;;19.20;88.90;;;;;;5063422;28;20833;-76
2021/08/30 09:11:39;;;;;;;11.80;8.20;;;19.20;86.50;;;;;;5061180;28;20455;-76
2021/08/30 09:14:21;;;;;;;9.73;8.63;;;18.90;88.10;;;;;;5065037;28;20505;-77
2021/08/30 09:16:50;;;;;;;15.67;9.87;;;18.70;89.50;;;;;;5056900;28;20445;-76
2021/08/30 09:19:19;;;;;;;9.73;8.53;;;18.50;91.10;;;;;;5058243;28;20511;-76
2021/08/30 09:21:48;;;;;;;9.97;8.30;;;18.50;92.30;;;;;;5061237;28;20499;-76
2021/08/30 09:24:18;;;;;;;11.13;9.87;;;18.60;91.10;;;;;;5066510;28;20479;-76
2021/08/30 09:26:50;;;;;;;11.07;9.90;;;18.80;90.40;;;;;;5062971;28;20502;-75
2021/08/30 09:29:19;;;;;;;10.00;9.00;;;18.70;88.60;;;;;;5058192;28;20457;-75
2021/08/30 09:32:05;;;;;;;11.27;8.47;;;18.90;87.50;;;;;;5061054;28;20517;-76
2021/08/30 09:34:36;;;;;;;9.60;8.70;;;19.00;84.60;;;;;;5058422;28;20487;-75
2021/08/30 09:37:04;;;;;;;10.27;9.17;;;19.10;86.80;;;;;;5043716;28;20452;-75
2021/08/30 09:39:33;;;;;;;10.93;8.70;;;19.20;85.60;;;;;;5051756;28;20424;-76
2021/08/30 09:42:01;;;;;;;16.40;8.80;;;19.20;84.70;;;;;;5068475;28;20481;-75
2021/08/30 09:44:30;;;;;;;11.27;8.33;;;19.50;80.10;;;;;;5077514;28;20467;-75
2021/08/30 09:47:07;;;;;;;10.13;9.13;;;19.60;79.20;;;;;;5071911;28;20457;-76
2021/08/30 09:49:36;;;;;;;11.30;8.60;;;19.70;75.20;;;;;;5055746;28;20453;-76
2021/08/30 09:52:03;;;;;;;13.13;9.07;;;19.80;74.50;;;;;;5055743;28;20476;-76
2021/08/30 09:54:30;;;;;;;11.10;8.63;;;19.80;73.20;;;;;;5056767;28;20439;-75
2021/08/30 09:56:58;;;;;;;13.17;9.23;;;19.90;73.40;;;;;;5057077;28;20524;-75
2021/08/30 09:59:26;;;;;;;15.60;8.47;;;20.00;72.80;;;;;;5056716;28;20449;-76
2021/08/30 10:01:55;;;;;;;9.33;8.40;;;20.20;72.80;;;;;;5053074;28;20985;-76
2021/08/30 10:04:24;;;;;;;10.33;9.17;;;20.40;71.60;;;;;;5054365;28;20838;-75
2021/08/30 10:06:54;;;;;;;9.40;8.20;;;20.50;70.80;;;;;;5056460;28;20453;-76
2021/08/30 10:09:22;;;;;;;10.00;8.17;;;20.40;71.10;;;;;;5055906;28;20478;-76
2021/08/30 10:11:52;;;;;;;14.30;8.87;;;20.60;69.30;;;;;;5054657;28;20481;-76
2021/08/30 10:14:23;;;;;;;10.43;9.00;;;20.50;68.20;;;;;;5055169;28;20503;-76
2021/08/30 10:16:51;;;;;;;8.50;7.63;;;20.10;68.00;;;;;;5056088;28;20472;-76
2021/08/30 10:19:29;;;;;;;9.30;8.33;;;20.10;68.80;;;;;;5056731;28;20480;-76
2021/08/30 10:21:59;;;;;;;9.07;8.27;;;20.10;70.70;;;;;;5063411;28;20485;-76
2021/08/30 10:24:28;;;;;;;10.67;8.57;;;19.90;67.70;;;;;;5055695;28;20496;-76
2021/08/30 10:27:03;;;;;;;9.90;8.90;;;19.60;70.40;;;;;;5056267;28;20895;-76
2021/08/30 10:29:33;;;;;;;9.63;8.20;;;19.60;72.70;;;;;;5060846;28;20907;-75
2021/08/30 10:32:01;;;;;;;9.90;8.90;;;19.40;72.90;;;;;;5064223;28;20498;-76
2021/08/30 10:34:30;;;;;;;10.80;9.60;;;19.30;74.80;;;;;;5082255;22;20605;-74
2021/08/30 10:36:59;;;;;;;10.40;9.30;;;19.10;75.90;;;;;;5049767;28;20519;-72
2021/08/30 10:39:37;;;;;;;10.67;9.67;;;19.00;74.00;;;;;;5051031;28;20455;-74
2021/08/30 10:42:04;;;;;;;9.60;8.40;;;18.80;75.60;;;;;;5052132;28;20583;-73
2021/08/30 10:44:32;;;;;;;10.10;9.00;;;18.90;75.70;;;;;;5055178;28;20499;-73
2021/08/30 10:47:01;;;;;;;9.77;8.83;;;18.80;76.50;;;;;;5050309;28;20499;-73
2021/08/30 10:49:30;;;;;;;11.53;10.33;;;18.90;77.30;;;;;;5072047;28;20453;-74
2021/08/30 10:52:10;;;;;;;10.47;9.47;;;19.00;77.70;;;;;;5077535;28;20425;-72
2021/08/30 10:54:37;;;;;;;12.00;9.67;;;19.00;75.80;;;;;;5069784;28;20826;-73
2021/08/30 10:57:04;;;;;;;9.60;8.70;;;19.10;76.70;;;;;;5063303;28;20560;-75
2021/08/30 10:59:32;;;;;;;10.63;9.63;;;19.20;75.60;;;;;;5047519;28;20560;-74
2021/08/30 11:02:03;;;;;;;10.00;8.83;;;19.10;75.90;;;;;;5052255;28;20491;-74
2021/08/30 11:04:34;;;;;;;11.60;10.40;;;19.10;74.00;;;;;;5052430;28;20473;-72
2021/08/30 11:07:02;;;;;;;10.30;9.30;;;19.20;75.10;;;;;;5053301;28;20457;-74
2021/08/30 11:09:31;;;;;;;9.97;8.87;;;19.30;74.80;;;;;;5053526;28;20940;-73
2021/08/30 11:12:08;;;;;;;13.47;9.07;;;19.40;73.00;;;;;;5054745;28;21035;-74
2021/08/30 11:14:36;;;;;;;11.00;9.77;;;19.70;71.30;;;;;;5059056;28;20483;-74
2021/08/30 11:17:03;;;;;;;9.67;8.57;;;19.90;69.20;;;;;;5072796;28;20472;-72
2021/08/30 11:19:30;;;;;;;11.63;8.33;;;20.30;68.10;;;;;;5065643;28;20456;-72
2021/08/30 11:21:59;;;;;;;8.23;7.37;;;20.60;63.70;;;;;;5076705;28;20469;-73
2021/08/30 11:24:29;;;;;;;9.80;8.63;;;20.60;62.90;;;;;;5076839;28;20458;-73
2021/08/30 11:27:00;;;;;;;10.63;7.97;;;20.80;62.40;;;;;;5077378;28;20430;-74
2021/08/30 11:29:27;;;;;;;11.40;8.17;;;20.90;61.70;;;;;;5077307;28;20440;-73
2021/08/30 11:31:54;;;;;;;9.80;8.30;;;21.00;60.90;;;;;;5077097;28;20439;-73
2021/08/30 11:34:27;;;;;;;10.27;8.53;;;21.00;59.50;;;;;;5077096;28;20479;-74
2021/08/30 11:36:57;;;;;;;10.60;9.50;;;20.60;60.20;;;;;;5071990;28;20945;-74
2021/08/30 11:39:24;;;;;;;10.70;8.20;;;20.50;62.10;;;;;;5055876;28;20484;-74
2021/08/30 11:41:59;;;;;;;8.00;7.10;;;20.80;59.30;;;;;;5058035;28;20496;-74
2021/08/30 11:44:26;;;;;;;8.40;7.60;;;20.90;58.10;;;;;;5058442;28;20909;-73
2021/08/30 11:46:56;;;;;;;9.53;8.03;;;21.20;58.60;;;;;;5056645;28;20450;-73
2021/08/30 11:49:24;;;;;;;10.30;8.30;;;21.20;54.90;;;;;;5057409;28;20466;-74
2021/08/30 11:51:54;;;;;;;8.90;7.70;;;21.20;56.80;;;;;;5056691;28;21097;-76
2021/08/30 11:54:29;;;;;;;9.33;7.80;;;21.10;54.80;;;;;;5055634;28;20588;-74
2021/08/30 11:56:59;;;;;;;8.97;7.93;;;20.90;57.80;;;;;;5055206;28;20867;-74
2021/08/30 11:59:32;;;;;;;8.67;7.77;;;21.20;54.90;;;;;;5059113;28;20526;-74
2021/08/30 12:01:59;;;;;;;9.67;8.50;;;21.20;54.90;;;;;;5059147;28;20589;-75
2021/08/30 12:04:31;;;;;;;9.47;8.53;;;21.10;55.90;;;;;;5055392;28;20545;-73
2021/08/30 12:07:00;;;;;;;8.23;7.53;;;21.20;54.90;;;;;;5056833;28;20949;-74
2021/08/30 12:09:39;;;;;;;8.40;7.30;;;21.40;55.00;;;;;;5053990;28;20455;-74
2021/08/30 12:12:16;;;;;;;8.93;8.03;;;21.70;53.70;;;;;;5054195;28;20446;-73
2021/08/30 12:14:57;;;;;;;10.43;7.60;;;21.60;53.40;;;;;;5053750;28;20511;-74
2021/08/30 12:17:25;;;;;;;8.30;7.50;;;21.40;54.20;;;;;;5053273;28;20819;-75
2021/08/30 12:19:53;;;;;;;10.20;7.80;;;21.40;53.80;;;;;;5052419;28;20453;-74
2021/08/30 12:22:27;;;;;;;8.10;7.40;;;21.60;53.90;;;;;;5052398;28;20488;-74
2021/08/30 12:25:17;;;;;;;10.20;7.53;;;21.60;54.10;;;;;;5052801;28;20449;-74
2021/08/30 12:27:47;;;;;;;8.70;7.10;;;21.80;53.50;;;;;;5048820;28;20546;-75
2021/08/30 12:30:21;;;;;;;8.60;7.70;;;22.10;52.30;;;;;;5055013;28;20478;-74
2021/08/30 12:32:53;;;;;;;8.90;7.90;;;22.00;52.20;;;;;;5056941;28;20498;-74
2021/08/30 12:35:23;;;;;;;8.23;7.53;;;21.90;52.60;;;;;;5058367;28;20479;-75
2021/08/30 12:37:51;;;;;;;7.60;6.90;;;22.10;52.60;;;;;;5059000;28;20449;-74
2021/08/30 12:40:18;;;;;;;8.70;7.77;;;22.10;51.30;;;;;;5058895;28;20836;-74
2021/08/30 12:42:47;;;;;;;8.17;7.37;;;21.80;51.80;;;;;;5057678;28;20924;-74
2021/08/30 12:45:14;;;;;;;12.03;7.60;;;21.70;53.30;;;;;;5065049;28;20496;-74
2021/08/30 12:47:42;;;;;;;9.93;8.10;;;21.80;53.60;;;;;;5067918;28;20473;-73
2021/08/30 12:50:10;;;;;;;10.20;8.57;;;21.70;53.40;;;;;;5061621;28;20451;-75
2021/08/30 12:52:37;;;;;;;8.63;7.77;;;21.40;55.10;;;;;;5055188;28;20860;-74
2021/08/30 12:55:06;;;;;;;11.90;9.03;;;21.00;57.70;;;;;;5055483;28;20534;-76